createdAt,value
2018-11-20T00:02:46.131Z,10.37
2018-11-20T00:05:21.108Z,9.40
2018-11-20T00:09:59.421Z,9.57
2018-11-20T00:12:37.382Z,10.03
2018-11-20T00:15:12.592Z,12.00
2018-11-20T00:17:55.553Z,12.93
2018-11-20T00:22:33.232Z,13.13
2018-11-20T00:25:09.045Z,12.47
2018-11-20T00:27:49.040Z,14.03
2018-11-20T00:30:22.862Z,13.43
2018-11-20T00:32:56.936Z,13.60
2018-11-20T00:35:29.980Z,14.17
2018-11-20T00:38:05.777Z,13.60
2018-11-20T00:40:39.823Z,13.60
2018-11-20T00:43:21.665Z,12.80
2018-11-20T00:45:55.617Z,12.13
2018-11-20T00:48:29.569Z,11.87
2018-11-20T00:51:03.756Z,10.70
2018-11-20T00:54:38.258Z,10.50
2018-11-20T00:58:11.007Z,10.20
2018-11-20T01:00:46.789Z,10.93
2018-11-20T01:03:20.721Z,11.37
2018-11-20T01:06:57.640Z,12.00
2018-11-20T01:09:32.607Z,12.53
2018-11-20T01:12:39.896Z,14.67
2018-11-20T01:15:16.772Z,12.97
2018-11-20T01:18:54.325Z,12.97
2018-11-20T01:23:34.638Z,13.10
2018-11-20T01:26:14.605Z,10.63
2018-11-20T01:30:50.894Z,11.30
2018-11-20T01:33:26.908Z,11.53
2018-11-20T01:38:03.200Z,12.33
2018-11-20T01:41:39.778Z,14.27
2018-11-20T01:45:17.395Z,13.20
2018-11-20T01:47:59.265Z,14.27
2018-11-20T01:50:33.193Z,14.73
2018-11-20T01:53:07.354Z,13.37
2018-11-20T01:55:43.371Z,14.63
2018-11-20T01:58:22.405Z,14.80
2018-11-20T02:00:56.501Z,14.20
2018-11-20T02:03:30.584Z,16.23
2018-11-20T02:06:04.932Z,17.00
2018-11-20T02:09:15.056Z,16.17
2018-11-20T02:12:05.173Z,16.63
2018-11-20T02:14:41.217Z,16.13
2018-11-20T02:17:50.966Z,15.40
2018-11-20T02:20:25.087Z,14.63
2018-11-20T02:22:58.988Z,14.83
2018-11-20T02:25:34.746Z,15.57
2018-11-20T02:29:14.393Z,14.60
2018-11-20T02:32:19.746Z,15.67
2018-11-20T02:34:52.793Z,14.90
2018-11-20T02:37:32.791Z,14.67
2018-11-20T02:40:10.641Z,14.37
2018-11-20T02:42:44.578Z,15.23
2018-11-20T02:45:18.746Z,16.63
2018-11-20T02:48:51.385Z,16.23
2018-11-20T02:52:23.390Z,17.40
2018-11-20T02:54:57.385Z,15.60
2018-11-20T02:58:03.391Z,15.43
2018-11-20T03:00:37.205Z,17.03
2018-11-20T03:05:14.099Z,17.03
2018-11-20T03:09:53.394Z,14.57
2018-11-20T03:12:27.273Z,12.57
2018-11-20T03:15:00.340Z,13.30
2018-11-20T03:19:36.990Z,11.87
2018-11-20T03:22:14.984Z,14.57
2018-11-20T03:24:48.992Z,15.30
2018-11-20T03:27:22.925Z,15.83
2018-11-20T03:32:16.791Z,15.03
2018-11-20T03:35:20.933Z,16.50
2018-11-20T03:37:54.860Z,16.60
2018-11-20T03:41:30.563Z,16.70
2018-11-20T03:44:12.345Z,17.13
2018-11-20T03:46:48.316Z,16.77
2018-11-20T03:49:22.303Z,17.33
2018-11-20T03:52:00.117Z,19.27
2018-11-20T03:54:51.177Z,18.27
2018-11-20T03:57:36.737Z,18.73
2018-11-20T04:00:13.394Z,15.93
2018-11-20T04:02:52.403Z,16.10
2018-11-20T04:05:40.664Z,15.03
2018-11-20T04:10:18.282Z,14.80
2018-11-20T04:13:50.003Z,15.83
2018-11-20T04:16:23.988Z,16.37
2018-11-20T04:19:03.841Z,16.50
2018-11-20T04:21:42.845Z,18.07
2018-11-20T04:24:16.863Z,17.90
2018-11-20T04:27:53.240Z,18.87
2018-11-20T04:32:41.524Z,19.73
2018-11-20T04:35:16.762Z,21.37
2018-11-20T04:37:51.492Z,22.50
2018-11-20T04:40:33.321Z,22.83
2018-11-20T04:44:05.000Z,23.20
2018-11-20T04:46:39.845Z,23.77
2018-11-20T04:50:11.817Z,23.87
2018-11-20T04:53:00.169Z,23.80
2018-11-20T04:55:48.328Z,22.87
2018-11-20T04:58:23.709Z,25.30
2018-11-20T05:03:01.200Z,24.97
2018-11-20T05:05:37.037Z,22.43
2018-11-20T05:08:11.341Z,23.23
2018-11-20T05:10:49.182Z,23.73
2018-11-20T05:13:24.091Z,23.30
2018-11-20T05:16:13.093Z,23.20
2018-11-20T05:18:49.984Z,25.77
2018-11-20T05:21:23.943Z,23.40
2018-11-20T05:24:00.888Z,24.33
2018-11-20T05:27:34.366Z,24.67
2018-11-20T05:30:07.487Z,24.90
2018-11-20T05:32:43.492Z,24.33
2018-11-20T05:35:17.663Z,23.67
2018-11-20T05:37:52.557Z,17.50
2018-11-20T05:41:24.234Z,28.03
2018-11-20T05:44:01.285Z,26.00
2018-11-20T05:48:38.726Z,26.33
2018-11-20T05:51:17.688Z,26.00
2018-11-20T05:53:53.644Z,27.00
2018-11-20T05:56:27.459Z,26.27
2018-11-20T05:59:01.518Z,25.33
2018-11-20T06:01:36.415Z,30.07
2018-11-20T06:04:26.710Z,32.93
2018-11-20T06:07:00.625Z,32.17
2018-11-20T06:10:10.778Z,42.10
2018-11-20T06:13:14.913Z,42.07
2018-11-20T06:15:54.733Z,38.27
2018-11-20T06:18:34.727Z,32.37
2018-11-20T06:21:16.675Z,29.90
2018-11-20T06:23:55.635Z,34.47
2018-11-20T06:26:47.717Z,34.67
2018-11-20T06:29:21.818Z,29.33
2018-11-20T06:31:55.805Z,34.10
2018-11-20T06:34:30.710Z,30.00
2018-11-20T06:37:22.929Z,24.33
2018-11-20T06:40:05.893Z,24.07
2018-11-20T06:42:39.882Z,23.73
2018-11-20T06:45:13.969Z,26.13
2018-11-20T06:49:51.333Z,25.47
2018-11-20T06:54:30.922Z,25.07
2018-11-20T06:57:04.839Z,18.20
2018-11-20T06:59:38.901Z,21.47
2018-11-20T07:02:18.712Z,17.47
2018-11-20T07:05:09.740Z,14.63
2018-11-20T07:07:45.685Z,11.87
2018-11-20T07:10:19.580Z,10.73
2018-11-20T07:13:00.496Z,9.57
2018-11-20T07:15:39.637Z,10.43
2018-11-20T07:19:14.042Z,9.70
2018-11-20T07:21:52.944Z,10.67
2018-11-20T07:24:31.088Z,9.63
2018-11-20T07:27:12.158Z,10.50
2018-11-20T07:30:17.465Z,10.33
2018-11-20T07:33:05.587Z,10.53
2018-11-20T07:35:47.697Z,10.67
2018-11-20T07:40:23.695Z,11.33
2018-11-20T07:43:03.573Z,11.87
2018-11-20T07:45:45.626Z,10.53
2018-11-20T07:48:19.636Z,10.83
2018-11-20T07:50:53.857Z,10.80
2018-11-20T07:53:27.924Z,10.33
2018-11-20T07:58:05.381Z,10.03
2018-11-20T08:00:42.296Z,11.27
2018-11-20T08:03:19.124Z,10.70
2018-11-20T08:05:58.171Z,11.53
2018-11-20T08:08:36.209Z,10.80
2018-11-20T08:11:10.382Z,11.87
2018-11-20T08:14:03.624Z,11.50
2018-11-20T08:16:44.790Z,10.37
2018-11-20T08:20:17.497Z,10.23
2018-11-20T08:23:09.811Z,11.03
2018-11-20T08:25:58.085Z,8.53
2018-11-20T08:30:37.725Z,9.70
2018-11-20T08:33:20.777Z,9.50
2018-11-20T08:35:54.992Z,9.27
2018-11-20T08:38:49.403Z,9.90
2018-11-20T08:43:28.199Z,11.60
2018-11-20T08:47:02.846Z,10.33
2018-11-20T08:51:39.547Z,12.47
2018-11-20T08:54:13.570Z,14.70
2018-11-20T08:56:50.016Z,16.10
2018-11-20T08:59:24.993Z,16.53
2018-11-20T09:01:59.158Z,16.23
2018-11-20T09:04:36.639Z,13.97
2018-11-20T09:08:17.365Z,13.60
2018-11-20T09:10:50.451Z,13.13
2018-11-20T09:15:27.122Z,14.83
2018-11-20T09:20:07.426Z,13.83
2018-11-20T09:22:46.491Z,15.57
2018-11-20T09:25:20.456Z,15.20
2018-11-20T09:28:56.488Z,15.73
2018-11-20T09:32:33.165Z,14.83
2018-11-20T09:37:17.274Z,17.27
2018-11-20T09:40:00.805Z,17.20
2018-11-20T09:42:35.933Z,13.70
2018-11-20T09:45:58.818Z,9.43
2018-11-20T09:49:31.311Z,10.40
2018-11-20T09:52:11.933Z,17.90
2018-11-20T09:56:49.129Z,21.23
2018-11-20T10:01:25.685Z,21.13
2018-11-20T10:03:58.831Z,20.37
2018-11-20T10:06:36.699Z,18.93
2018-11-20T10:10:13.520Z,18.53
2018-11-20T10:13:02.454Z,19.67
2018-11-20T10:15:36.386Z,20.80
2018-11-20T10:19:14.337Z,19.37
2018-11-20T10:25:00.788Z,24.43
2018-11-20T10:27:34.754Z,24.03
2018-11-20T10:31:06.652Z,24.67
2018-11-20T10:34:38.517Z,26.93
2018-11-20T10:37:17.489Z,26.77
2018-11-20T10:40:27.583Z,28.13
2018-11-20T10:43:01.668Z,27.43
2018-11-20T10:45:40.711Z,26.87
2018-11-20T10:48:14.789Z,30.83
2018-11-20T10:50:49.660Z,28.90
2018-11-20T10:53:27.597Z,31.10
2018-11-20T10:58:05.940Z,27.63
2018-11-20T11:00:40.924Z,29.67
2018-11-20T11:03:15.064Z,28.63
2018-11-20T11:05:49.167Z,29.40
2018-11-20T11:08:23.293Z,31.93
2018-11-20T11:10:56.408Z,30.20
2018-11-20T11:15:36.169Z,31.70
2018-11-20T11:18:19.275Z,29.07
2018-11-20T11:20:55.352Z,28.93
2018-11-20T11:23:41.342Z,33.00
2018-11-20T11:26:15.263Z,31.00
2018-11-20T11:28:54.101Z,31.90
2018-11-20T11:31:29.931Z,33.30
2018-11-20T11:34:10.780Z,29.67
2018-11-20T11:36:56.837Z,31.57
2018-11-20T11:39:34.225Z,32.43
2018-11-20T11:43:08.769Z,25.97
2018-11-20T11:45:48.816Z,21.20
2018-11-20T11:48:22.935Z,22.83
2018-11-20T11:51:57.454Z,28.43
2018-11-20T11:54:31.538Z,35.17
2018-11-20T11:57:06.172Z,33.40
2018-11-20T11:59:41.316Z,39.17
